Time;durP1;ratioP1;P1;durP2;ratioP2;P2;SDS_P1;SDS_P2;PMS_P1;PMS_P2;Temp;Humidity;BMP_temperature;BMP_pressure;BME280_temperature;BME280_humidity;BME280_pressure;Samples;Min_cycle;Max_cycle;Signal;HPM_P1;HPM_P2
2023/11/01 00:01:18;;;;;;;12.70;7.60;;;;;;;13.67;86.22;99683.81;107947;1256;73670;-70
2023/11/01 00:03:57;;;;;;;16.00;7.50;;;;;;;13.68;86.46;99678.71;107910;1260;71615;-71
2023/11/01 00:06:32;;;;;;;13.00;7.50;;;;;;;13.48;86.89;99684.89;107891;1257;72709;-69
2023/11/01 00:09:25;;;;;;;16.10;7.80;;;;;;;13.37;87.82;99690.25;107695;1257;64805;-71
2023/11/01 00:12:00;;;;;;;13.60;7.40;;;;;;;13.35;88.47;99694.23;107756;1263;61193;-72
2023/11/01 00:14:42;;;;;;;;;;;;;;;13.34;88.76;99693.30;107905;1257;74785;-71
2023/11/01 00:17:25;;;;;;;12.50;6.80;;;;;;;13.33;89.05;99686.34;107804;1257;71704;-70
2023/11/01 00:20:08;;;;;;;16.00;7.50;;;;;;;13.31;89.30;99683.27;107795;1257;72738;-70
2023/11/01 00:23:10;;;;;;;13.70;7.20;;;;;;;13.30;89.48;99684.67;107842;1259;61880;-72
2023/11/01 00:25:43;;;;;;;12.80;7.30;;;;;;;13.31;89.74;99682.79;107935;1257;61244;-70
2023/11/01 00:28:20;;;;;;;14.60;7.30;;;;;;;13.38;89.72;99675.74;107886;1256;74484;-71
2023/11/01 00:31:02;;;;;;;12.50;7.10;;;;;;;13.61;89.32;99669.17;107831;1257;71737;-71
2023/11/01 00:33:45;;;;;;;16.10;7.50;;;;;;;13.67;88.81;99666.33;107887;1257;72776;-71
2023/11/01 00:36:13;;;;;;;13.40;7.20;;;;;;;13.71;88.65;99664.06;107917;1256;61171;-71
2023/11/01 00:38:46;;;;;;;16.40;7.20;;;;;;;13.71;88.52;99664.32;107839;1256;61242;-71
2023/11/01 00:41:25;;;;;;;12.90;6.80;;;;;;;13.72;88.51;99660.44;107867;1256;74666;-71
2023/11/01 00:44:08;;;;;;;13.20;7.00;;;;;;;13.72;88.38;99660.00;107884;1257;71697;-71
2023/11/01 00:46:47;;;;;;;13.50;7.80;;;;;;;13.72;88.30;99662.46;107831;1258;73240;-70
2023/11/01 00:49:31;;;;;;;12.70;7.30;;;;;;;13.72;88.37;99659.67;107885;1257;61716;-70
2023/11/01 00:52:19;;;;;;;15.70;7.60;;;;;;;13.72;88.53;99662.15;107876;1257;61211;-71
2023/11/01 00:54:55;;;;;;;15.60;7.40;;;;;;;13.73;88.51;99657.09;107988;1257;73371;-71
2023/11/01 00:57:32;;;;;;;14.20;7.70;;;;;;;13.74;88.48;99646.60;107932;1256;71655;-71
2023/11/01 01:00:14;;;;;;;15.10;8.10;;;;;;;13.74;88.48;99646.23;107939;1257;75162;-71
2023/11/01 01:02:48;;;;;;;13.50;7.80;;;;;;;13.73;88.47;99640.92;107857;1256;61704;-72
2023/11/01 01:05:25;;;;;;;12.70;6.80;;;;;;;13.73;88.37;99641.52;107926;1257;61278;-73
2023/11/01 01:07:58;;;;;;;12.80;7.50;;;;;;;13.73;88.45;99640.06;107845;1257;74711;-72
2023/11/01 01:10:29;;;;;;;10.70;7.10;;;;;;;13.75;88.56;99641.59;107886;1256;72246;-73
2023/11/01 01:13:07;;;;;;;14.70;7.50;;;;;;;13.76;88.63;99637.59;107929;1257;71831;-70
2023/11/01 01:15:47;;;;;;;13.90;7.30;;;;;;;13.78;88.76;99639.73;107939;1256;61750;-71
2023/11/01 01:18:25;;;;;;;12.00;7.60;;;;;;;13.83;88.79;99637.17;107957;1260;61240;-71
2023/11/01 01:21:04;;;;;;;16.50;7.20;;;;;;;13.90;88.86;99639.18;107870;1257;76785;-73
2023/11/01 01:23:40;;;;;;;13.00;7.60;;;;;;;13.93;88.91;99638.30;107923;1257;71609;-70
2023/11/01 01:26:20;;;;;;;13.20;7.50;;;;;;;13.97;89.09;99643.75;107908;1257;71159;-71
2023/11/01 01:29:03;;;;;;;13.30;7.30;;;;;;;14.02;89.30;99647.72;107934;1257;61707;-71
2023/11/01 01:31:51;;;;;;;13.70;7.50;;;;;;;14.08;89.46;99646.36;107937;1255;61083;-71
2023/11/01 01:34:35;;;;;;;12.40;7.00;;;;;;;14.12;89.40;99650.45;107934;1257;74669;-71
2023/11/01 01:37:26;;;;;;;13.20;7.10;;;;;;;14.17;89.50;99647.63;107832;1256;72751;-70
2023/11/01 01:40:03;;;;;;;14.20;7.50;;;;;;;14.21;89.55;99650.53;107928;1257;75690;-71
2023/11/01 01:42:34;;;;;;;13.30;6.70;;;;;;;14.26;89.58;99657.30;107892;1256;61684;-71
2023/11/01 01:45:13;;;;;;;13.10;7.70;;;;;;;14.30;89.48;99663.70;107889;1257;61221;-71
2023/11/01 01:47:45;;;;;;;14.50;7.80;;;;;;;14.35;89.60;99671.45;107803;1256;74774;-70
2023/11/01 01:50:17;;;;;;;;;;;;;;;14.38;89.52;99670.98;107876;1257;75205;-71
2023/11/01 01:52:56;;;;;;;14.10;7.70;;;;;;;14.42;89.54;99670.84;107970;1257;71707;-70
2023/11/01 01:55:27;;;;;;;14.90;7.90;;;;;;;14.47;89.59;99669.02;107862;1257;61759;-71
2023/11/01 01:58:00;;;;;;;13.60;6.80;;;;;;;14.51;89.50;99670.66;107923;1257;61091;-70
2023/11/01 02:00:30;;;;;;;13.50;7.30;;;;;;;14.57;89.47;99665.05;107772;1256;74635;-71
2023/11/01 02:03:00;;;;;;;12.80;6.90;;;;;;;14.65;89.33;99661.05;107754;1257;71177;-71
2023/11/01 02:05:30;;;;;;;13.90;7.00;;;;;;;14.71;89.06;99662.08;107867;1257;73155;-71
2023/11/01 02:07:59;;;;;;;12.00;6.90;;;;;;;14.76;88.92;99663.63;107892;1257;61127;-71
2023/11/01 02:10:27;;;;;;;12.90;6.70;;;;;;;14.80;88.81;99655.41;107910;1255;61135;-70
2023/11/01 02:12:55;;;;;;;10.60;6.80;;;;;;;14.83;88.59;99645.23;107909;1256;73675;-72
2023/11/01 02:15:23;;;;;;;13.70;7.10;;;;;;;14.86;88.44;99643.71;107774;1257;71739;-73
2023/11/01 02:17:51;;;;;;;14.20;6.60;;;;;;;14.90;88.33;99640.36;107956;1255;72620;-72
2023/11/01 02:20:19;;;;;;;14.00;7.40;;;;;;;14.94;88.14;99633.48;107948;1257;61108;-72
2023/11/01 02:22:46;;;;;;;13.50;7.30;;;;;;;14.98;88.05;99634.74;107863;1256;61267;-72
2023/11/01 02:25:14;;;;;;;14.40;7.20;;;;;;;15.02;87.93;99633.88;107875;1256;73465;-71
2023/11/01 02:27:42;;;;;;;10.10;6.00;;;;;;;15.06;87.87;99638.89;107775;1257;72895;-69
2023/11/01 02:30:16;;;;;;;14.00;8.00;;;;;;;15.10;87.66;99634.64;107914;1256;70493;-71
2023/11/01 02:32:47;;;;;;;10.70;6.70;;;;;;;15.15;87.64;99640.27;107959;1256;61141;-71
2023/11/01 02:35:16;;;;;;;10.50;6.90;;;;;;;15.19;87.43;99636.82;107898;1257;61091;-71
2023/11/01 02:37:43;;;;;;;11.80;7.70;;;;;;;15.24;87.35;99625.66;107871;1256;73384;-73
2023/11/01 02:40:11;;;;;;;13.60;7.30;;;;;;;15.29;87.14;99632.52;107954;1255;72718;-73
2023/11/01 02:42:43;;;;;;;12.10;6.90;;;;;;;15.34;86.89;99627.88;107949;1257;72724;-70
2023/11/01 02:45:12;;;;;;;12.10;7.20;;;;;;;15.37;86.62;99617.36;107924;1257;61099;-71
2023/11/01 02:47:40;;;;;;;15.50;7.70;;;;;;;15.41;86.58;99613.64;107904;1256;61254;-70
2023/11/01 02:50:09;;;;;;;12.60;8.10;;;;;;;15.45;86.30;99616.20;107962;1255;74160;-71
2023/11/01 02:52:38;;;;;;;12.80;7.40;;;;;;;15.48;86.00;99608.67;107796;1256;72459;-71
2023/11/01 02:55:13;;;;;;;14.30;7.30;;;;;;;15.51;85.78;99610.02;107870;1260;71543;-69
2023/11/01 02:57:42;;;;;;;14.40;7.50;;;;;;;15.51;85.51;99604.73;107795;1257;61288;-71
2023/11/01 03:00:19;;;;;;;12.00;7.90;;;;;;;15.54;85.28;99600.94;107902;1257;61090;-71
2023/11/01 03:02:48;;;;;;;13.80;7.70;;;;;;;15.54;84.98;99593.85;107928;1257;73357;-71
2023/11/01 03:05:16;;;;;;;12.70;7.60;;;;;;;15.55;84.68;99584.06;107823;1257;72130;-70
2023/11/01 03:07:44;;;;;;;12.50;7.10;;;;;;;15.54;84.45;99584.50;107973;1257;72680;-71
2023/11/01 03:10:12;;;;;;;14.80;7.30;;;;;;;15.53;84.18;99587.84;107832;1257;61151;-72
2023/11/01 03:12:40;;;;;;;12.00;6.80;;;;;;;15.51;83.97;99582.52;107993;1256;61339;-72
2023/11/01 03:15:08;;;;;;;17.60;8.10;;;;;;;15.51;83.76;99577.02;107848;1257;74640;-73
2023/11/01 03:17:36;;;;;;;11.40;7.50;;;;;;;15.54;83.47;99565.48;107844;1256;73057;-72
2023/11/01 03:20:07;;;;;;;11.90;7.60;;;;;;;15.53;83.11;99572.77;107853;1256;72527;-72
2023/11/01 03:22:34;;;;;;;12.70;8.20;;;;;;;15.50;83.03;99572.55;107866;1257;60808;-72
2023/11/01 03:25:03;;;;;;;11.40;7.50;;;;;;;15.50;83.07;99565.09;107895;1256;61222;-71
2023/11/01 03:27:30;;;;;;;15.10;8.30;;;;;;;15.50;83.07;99569.40;107901;1260;74668;-70
2023/11/01 03:29:58;;;;;;;12.90;7.80;;;;;;;15.51;83.03;99568.02;107967;1257;71388;-70
2023/11/01 03:32:25;;;;;;;14.50;7.90;;;;;;;15.51;82.98;99570.83;107902;1257;72498;-71
2023/11/01 03:34:53;;;;;;;13.50;7.50;;;;;;;15.55;82.93;99568.45;107872;1256;61122;-73
2023/11/01 03:37:21;;;;;;;12.70;8.90;;;;;;;15.61;82.78;99570.14;108024;1257;61102;-72
2023/11/01 03:39:49;;;;;;;13.90;7.30;;;;;;;15.66;82.66;99564.26;107952;1257;73623;-72
2023/11/01 03:42:16;;;;;;;11.60;7.20;;;;;;;15.69;82.49;99563.27;107868;1257;72500;-73
2023/11/01 03:44:44;;;;;;;15.30;7.60;;;;;;;15.72;82.31;99555.80;107936;1257;71527;-72
2023/11/01 03:47:12;;;;;;;11.40;8.20;;;;;;;15.73;82.10;99554.16;107862;1256;61093;-72
2023/11/01 03:49:41;;;;;;;11.00;8.00;;;;;;;15.73;81.85;99552.76;107882;1255;60087;-71
2023/11/01 03:52:08;;;;;;;14.50;8.30;;;;;;;15.73;81.74;99554.91;107906;1257;74928;-72
2023/11/01 03:54:36;;;;;;;12.00;7.80;;;;;;;15.73;81.44;99557.45;107851;1256;72010;-70
2023/11/01 03:57:04;;;;;;;15.30;8.10;;;;;;;15.71;81.23;99550.67;107814;1257;71293;-71
2023/11/01 03:59:32;;;;;;;14.10;7.90;;;;;;;15.62;81.13;99554.69;107779;1257;61256;-71
2023/11/01 04:02:00;;;;;;;13.40;8.20;;;;;;;15.54;80.88;99551.64;107890;1257;61025;-70
2023/11/01 04:04:27;;;;;;;15.90;8.70;;;;;;;15.48;80.99;99554.10;107955;1255;73824;-73
2023/11/01 04:06:55;;;;;;;14.10;9.20;;;;;;;15.43;80.97;99550.60;107866;1257;71152;-73
2023/11/01 04:09:23;;;;;;;13.30;8.50;;;;;;;15.36;80.90;99556.29;107890;1257;71638;-70
2023/11/01 04:11:51;;;;;;;15.40;8.80;;;;;;;15.31;81.19;99553.43;107818;1257;60850;-71
2023/11/01 04:14:19;;;;;;;11.80;9.00;;;;;;;15.30;81.33;99549.15;107771;1257;61256;-72
2023/11/01 04:16:47;;;;;;;16.00;9.80;;;;;;;15.30;81.59;99550.34;107838;1257;73420;-71
2023/11/01 04:19:16;;;;;;;15.90;9.20;;;;;;;15.27;81.66;99550.05;107777;1255;70839;-71
2023/11/01 04:21:43;;;;;;;17.30;10.10;;;;;;;15.25;81.94;99553.53;108015;1256;71271;-71
2023/11/01 04:24:11;;;;;;;19.20;10.00;;;;;;;15.26;82.19;99554.20;107955;1256;61650;-72
2023/11/01 04:26:39;;;;;;;15.00;9.40;;;;;;;15.29;82.41;99554.14;107906;1257;60137;-70
2023/11/01 04:29:06;;;;;;;15.60;9.70;;;;;;;15.30;82.51;99551.68;107960;1257;73425;-71
2023/11/01 04:31:34;;;;;;;17.40;10.70;;;;;;;15.32;82.70;99547.00;107725;1256;72755;-73
2023/11/01 04:34:02;;;;;;;17.80;10.00;;;;;;;15.37;82.65;99547.46;107808;1256;71188;-73
2023/11/01 04:36:30;;;;;;;16.20;9.30;;;;;;;15.41;82.68;99548.73;107862;1257;60128;-71
2023/11/01 04:38:58;;;;;;;13.50;9.10;;;;;;;15.41;82.64;99552.11;107882;1260;60447;-71
2023/11/01 04:41:29;;;;;;;15.70;9.40;;;;;;;15.45;82.70;99550.06;107800;1256;73471;-71
2023/11/01 04:43:57;;;;;;;16.00;9.70;;;;;;;15.48;82.67;99550.45;107943;1257;71583;-71
2023/11/01 04:46:24;;;;;;;17.20;10.40;;;;;;;15.51;82.61;99550.20;107810;1257;72697;-70
2023/11/01 04:48:52;;;;;;;16.20;9.50;;;;;;;15.54;82.54;99552.50;107896;1257;61575;-71
2023/11/01 04:51:20;;;;;;;15.10;9.50;;;;;;;15.56;82.34;99550.59;107770;1257;61092;-70
2023/11/01 04:53:48;;;;;;;14.70;9.40;;;;;;;15.57;82.21;99549.34;107870;1257;72663;-73
2023/11/01 04:56:16;;;;;;;12.00;8.90;;;;;;;15.57;82.09;99553.26;107766;1257;71374;-72
2023/11/01 04:58:44;;;;;;;14.90;8.90;;;;;;;15.56;81.98;99552.91;107837;1257;71405;-72
2023/11/01 05:01:13;;;;;;;16.30;9.30;;;;;;;15.56;81.72;99560.40;107773;1257;61844;-71
2023/11/01 05:03:40;;;;;;;14.20;9.70;;;;;;;15.54;81.70;99561.93;107730;1257;61230;-70
2023/11/01 05:06:10;;;;;;;17.10;9.90;;;;;;;15.51;81.44;99562.96;107958;1255;73697;-72
2023/11/01 05:08:37;;;;;;;16.20;10.50;;;;;;;15.47;81.26;99568.56;107914;1255;72672;-72
2023/11/01 05:11:05;;;;;;;15.80;9.50;;;;;;;15.44;81.21;99572.03;107853;1257;72712;-72
2023/11/01 05:13:33;;;;;;;14.00;9.60;;;;;;;15.41;81.12;99578.59;108015;1256;61410;-71
2023/11/01 05:16:01;;;;;;;17.10;10.30;;;;;;;15.38;81.16;99577.60;107850;1257;61102;-71
2023/11/01 05:18:29;;;;;;;14.50;9.80;;;;;;;15.36;81.21;99581.64;107865;1257;73462;-70
2023/11/01 05:20:56;;;;;;;17.40;10.00;;;;;;;15.35;81.37;99581.89;107712;1256;71648;-72
2023/11/01 05:23:24;;;;;;;16.30;9.80;;;;;;;15.36;81.47;99592.08;107888;1256;71606;-72
2023/11/01 05:25:52;;;;;;;17.60;10.30;;;;;;;15.38;81.52;99594.21;107691;1256;61103;-72
2023/11/01 05:28:20;;;;;;;14.70;9.10;;;;;;;15.41;81.67;99594.79;107802;1257;61200;-74
2023/11/01 05:30:48;;;;;;;15.30;9.90;;;;;;;15.43;81.69;99592.30;107896;1257;73420;-72
2023/11/01 05:33:18;;;;;;;14.60;9.90;;;;;;;15.44;81.67;99588.95;107883;1255;70460;-73
2023/11/01 05:35:49;;;;;;;14.80;10.10;;;;;;;15.53;81.53;99593.80;107840;1257;71460;-72
2023/11/01 05:38:17;;;;;;;15.40;9.70;;;;;;;15.53;81.60;99598.54;107764;1256;61712;-72
2023/11/01 05:40:44;;;;;;;14.90;9.60;;;;;;;15.58;81.53;99610.06;107902;1255;59065;-71
2023/11/01 05:43:12;;;;;;;13.20;9.50;;;;;;;15.63;81.34;99607.89;107877;1257;74726;-72
2023/11/01 05:45:40;;;;;;;14.10;9.90;;;;;;;15.69;81.28;99607.65;107731;1257;71596;-72
2023/11/01 05:48:08;;;;;;;14.20;10.00;;;;;;;15.74;80.98;99604.48;107830;1260;72771;-72
2023/11/01 05:50:40;;;;;;;15.40;9.50;;;;;;;15.78;81.04;99604.90;107841;1255;61087;-73
2023/11/01 05:53:10;;;;;;;;;;;;;;;15.84;80.91;99606.66;107860;1257;60405;-73
2023/11/01 05:55:38;;;;;;;14.80;9.90;;;;;;;15.91;80.70;99599.77;107867;1257;73084;-72
2023/11/01 05:58:26;;;;;;;14.70;9.80;;;;;;;16.01;80.42;99600.29;108034;1257;71442;-72
2023/11/01 06:00:54;;;;;;;13.80;9.60;;;;;;;16.07;80.44;99601.29;107830;1257;72708;-72
2023/11/01 06:03:25;;;;;;;15.80;9.90;;;;;;;16.15;79.97;99600.38;107846;1256;61099;-73
2023/11/01 06:05:57;;;;;;;12.60;9.40;;;;;;;16.13;80.00;99601.98;107927;1256;60926;-72
2023/11/01 06:08:26;;;;;;;13.10;9.40;;;;;;;16.19;79.82;99598.81;107798;1255;73439;-72
2023/11/01 06:10:54;;;;;;;14.80;9.60;;;;;;;16.08;80.05;99602.11;107750;1257;71600;-73
2023/11/01 06:13:22;;;;;;;17.10;10.60;;;;;;;16.32;79.46;99601.15;107745;1257;71404;-72
2023/11/01 06:15:51;;;;;;;13.20;9.30;;;;;;;16.39;78.98;99601.73;107697;1259;60482;-72
2023/11/01 06:18:20;;;;;;;14.30;9.60;;;;;;;16.43;78.72;99595.89;108033;1256;59980;-72
2023/11/01 06:20:48;;;;;;;15.80;9.60;;;;;;;16.48;78.35;99597.23;107772;1257;73556;-72
2023/11/01 06:23:17;;;;;;;16.20;9.90;;;;;;;16.37;78.27;99598.86;107756;1257;71451;-71
2023/11/01 06:25:45;;;;;;;14.70;9.00;;;;;;;16.32;78.83;99595.60;107879;1256;71168;-71
2023/11/01 06:28:14;;;;;;;14.60;9.00;;;;;;;16.59;77.95;99589.27;107716;1257;61198;-71
2023/11/01 06:30:42;;;;;;;12.80;9.20;;;;;;;16.71;77.49;99584.51;107977;1257;61262;-72
2023/11/01 06:33:10;;;;;;;13.70;9.40;;;;;;;16.79;76.96;99579.04;107980;1260;73556;-73
2023/11/01 06:35:39;;;;;;;19.00;10.10;;;;;;;16.82;76.34;99581.33;107948;1257;71623;-73
2023/11/01 06:38:07;;;;;;;13.60;9.40;;;;;;;16.85;76.09;99582.06;107967;1256;72703;-72
2023/11/01 06:40:35;;;;;;;14.10;10.00;;;;;;;16.87;75.68;99581.38;107866;1256;61116;-73
2023/11/01 06:43:04;;;;;;;15.90;10.00;;;;;;;16.91;75.21;99589.04;107900;1257;61229;-73
2023/11/01 06:45:31;;;;;;;11.10;8.30;;;;;;;16.88;74.56;99586.08;107870;1257;73633;-72
2023/11/01 06:47:59;;;;;;;12.70;8.50;;;;;;;16.81;74.14;99579.89;108002;1257;71790;-72
2023/11/01 06:50:27;;;;;;;12.00;8.80;;;;;;;16.76;73.89;99576.90;107787;1259;71578;-73
2023/11/01 06:52:57;;;;;;;17.40;10.50;;;;;;;16.72;73.55;99576.63;107910;1256;62023;-72
2023/11/01 06:55:25;;;;;;;13.30;9.40;;;;;;;16.70;73.49;99580.87;107860;1257;61097;-72
2023/11/01 06:57:53;;;;;;;15.20;9.90;;;;;;;16.71;73.30;99591.08;107827;1256;74091;-73
2023/11/01 07:00:23;;;;;;;12.50;8.70;;;;;;;16.69;72.99;99590.83;107823;1257;72754;-73
2023/11/01 07:02:51;;;;;;;14.80;9.40;;;;;;;16.68;72.92;99591.08;107729;1260;72690;-71
2023/11/01 07:05:19;;;;;;;14.20;9.70;;;;;;;16.69;72.70;99594.05;77757;1256;20001607;-73
2023/11/01 07:07:47;;;;;;;13.90;9.90;;;;;;;16.70;72.68;99597.58;107711;1255;59776;-72
2023/11/01 07:10:16;;;;;;;14.80;9.40;;;;;;;16.77;72.53;99601.80;108101;1254;61317;-73
2023/11/01 07:12:44;;;;;;;13.10;9.30;;;;;;;16.81;72.19;99600.81;107634;1256;73383;-73
2023/11/01 07:15:12;;;;;;;13.40;9.20;;;;;;;16.81;72.07;99596.05;107842;1256;61771;-72
2023/11/01 07:17:39;;;;;;;13.20;9.20;;;;;;;16.82;72.01;99595.02;107599;1257;61141;-72
2023/11/01 07:20:08;;;;;;;13.30;9.20;;;;;;;16.84;71.84;99587.70;107686;1256;73374;-72
2023/11/01 07:22:36;;;;;;;15.90;9.50;;;;;;;16.84;71.69;99579.30;107728;1257;73545;-72
2023/11/01 07:25:04;;;;;;;16.70;9.60;;;;;;;16.82;71.69;99575.77;107670;1257;72789;-71
2023/11/01 07:27:33;;;;;;;14.60;9.00;;;;;;;16.81;71.52;99575.50;107813;1257;61103;-72
2023/11/01 07:30:01;;;;;;;11.50;8.90;;;;;;;16.83;71.46;99577.58;107770;1255;61088;-72
2023/11/01 07:32:28;;;;;;;16.80;10.20;;;;;;;16.85;71.40;99580.54;107772;1256;77074;-71
2023/11/01 07:34:57;;;;;;;14.90;10.20;;;;;;;16.87;71.28;99585.44;107858;1257;71572;-70
2023/11/01 07:37:25;;;;;;;13.00;9.30;;;;;;;16.85;71.12;99582.59;107690;1257;71442;-72
2023/11/01 07:39:53;;;;;;;14.20;9.20;;;;;;;16.84;71.05;99574.22;107638;1257;61304;-73
2023/11/01 07:42:20;;;;;;;13.20;8.70;;;;;;;16.87;71.17;99567.04;107649;1258;61083;-72
2023/11/01 07:44:48;;;;;;;12.70;8.60;;;;;;;16.97;71.17;99565.11;107730;1257;73676;-72
2023/11/01 07:47:16;;;;;;;14.20;9.30;;;;;;;17.02;70.80;99566.95;107741;1257;72854;-71
2023/11/01 07:49:43;;;;;;;16.70;9.50;;;;;;;17.05;70.41;99566.05;107666;1257;71823;-72
2023/11/01 07:52:11;;;;;;;11.00;8.40;;;;;;;17.07;70.23;99568.00;107721;1256;61132;-72
2023/11/01 07:54:39;;;;;;;13.30;8.40;;;;;;;17.07;69.89;99576.09;107626;1262;61078;-71
2023/11/01 07:57:07;;;;;;;12.80;9.20;;;;;;;17.06;69.79;99585.74;107769;1257;73369;-73
2023/11/01 07:59:35;;;;;;;15.70;10.00;;;;;;;17.05;69.68;99591.13;107657;1257;245059;-71
2023/11/01 08:02:04;;;;;;;13.50;9.30;;;;;;;17.05;69.72;99595.91;107739;1257;71516;-71
2023/11/01 08:04:32;;;;;;;12.40;9.40;;;;;;;17.07;69.72;99600.60;107685;1257;62203;-71
2023/11/01 08:07:00;;;;;;;17.10;9.60;;;;;;;17.12;69.64;99598.62;107707;1257;61314;-71
2023/11/01 08:09:28;;;;;;;14.00;9.00;;;;;;;17.16;69.41;99599.23;107702;1257;74810;-71
2023/11/01 08:11:56;;;;;;;17.00;8.80;;;;;;;17.19;69.17;99608.52;107659;1257;72744;-71
2023/11/01 08:14:23;;;;;;;13.00;9.00;;;;;;;17.22;68.99;99616.46;107746;1257;72707;-73
2023/11/01 08:16:51;;;;;;;15.30;9.60;;;;;;;17.24;68.55;99622.26;107621;1257;61400;-73
2023/11/01 08:19:19;;;;;;;12.60;9.20;;;;;;;17.24;68.30;99628.85;107777;1256;61217;-72
2023/11/01 08:21:47;;;;;;;13.30;8.40;;;;;;;17.27;68.34;99634.02;107839;1255;74740;-72
2023/11/01 08:24:15;;;;;;;13.50;8.50;;;;;;;17.31;68.27;99644.29;107825;1257;73359;-72
2023/11/01 08:26:43;;;;;;;12.40;8.60;;;;;;;17.34;68.07;99650.81;107775;1256;72898;-71
2023/11/01 08:29:10;;;;;;;13.10;9.10;;;;;;;17.34;68.13;99650.88;107780;1257;61107;-71
2023/11/01 08:31:40;;;;;;;14.60;9.00;;;;;;;17.34;68.00;99651.36;107679;1256;61092;-71
2023/11/01 08:34:08;;;;;;;12.30;8.80;;;;;;;17.31;67.89;99653.23;107825;1256;73445;-72
2023/11/01 08:36:36;;;;;;;14.00;8.40;;;;;;;17.28;67.67;99653.59;107750;1257;71569;-71
2023/11/01 08:39:04;;;;;;;12.40;8.10;;;;;;;17.28;67.57;99655.58;107804;1257;71652;-73
2023/11/01 08:41:31;;;;;;;15.40;9.40;;;;;;;17.28;67.56;99654.81;107670;1257;62078;-72
2023/11/01 08:43:59;;;;;;;12.30;8.60;;;;;;;17.24;67.71;99649.02;107689;1257;60198;-72
2023/11/01 08:46:27;;;;;;;12.30;8.30;;;;;;;17.20;67.49;99646.23;107688;1257;75137;-72
2023/11/01 08:48:54;;;;;;;13.10;8.30;;;;;;;17.16;67.52;99640.42;107685;1257;75459;-72
2023/11/01 08:51:22;;;;;;;11.40;8.10;;;;;;;17.09;67.46;99647.17;107639;1259;71504;-72
2023/11/01 08:53:50;;;;;;;12.10;8.20;;;;;;;17.06;67.61;99651.91;107717;1256;62503;-71
2023/11/01 08:56:18;;;;;;;12.60;8.30;;;;;;;17.03;67.70;99667.20;107765;1261;61123;-71
2023/11/01 08:58:46;;;;;;;12.50;8.00;;;;;;;17.00;67.77;99670.90;107640;1257;73550;-71
2023/11/01 09:01:14;;;;;;;13.10;8.30;;;;;;;16.99;67.80;99678.80;107859;1257;71396;-71
2023/11/01 09:03:42;;;;;;;10.80;7.70;;;;;;;16.98;67.90;99674.14;107753;1257;72657;-73
2023/11/01 09:06:10;;;;;;;13.90;8.60;;;;;;;16.95;67.94;99674.72;107742;1257;61216;-72
2023/11/01 09:08:38;;;;;;;12.00;7.70;;;;;;;16.94;68.07;99678.65;107757;1256;61093;-73
2023/11/01 09:11:05;;;;;;;13.40;8.50;;;;;;;16.92;68.08;99680.56;107602;1257;75049;-73
2023/11/01 09:13:33;;;;;;;12.80;8.90;;;;;;;16.87;68.18;99680.59;108573;1257;71460;-71
2023/11/01 09:16:01;;;;;;;12.50;8.40;;;;;;;16.84;68.24;99673.53;107758;1260;71526;-72
2023/11/01 09:18:29;;;;;;;11.80;8.90;;;;;;;16.79;68.28;99669.80;107677;1256;63092;-73
2023/11/01 09:20:58;;;;;;;10.50;7.90;;;;;;;16.72;68.50;99670.06;107810;1260;60104;-71
2023/11/01 09:23:27;;;;;;;11.40;7.40;;;;;;;16.62;68.47;99673.75;107622;1257;73516;-71
2023/11/01 09:25:55;;;;;;;10.30;7.10;;;;;;;16.55;68.70;99668.05;108500;1257;71784;-71
2023/11/01 09:28:22;;;;;;;13.20;7.50;;;;;;;16.48;68.73;99668.11;108235;1259;72543;-72
2023/11/01 09:30:50;;;;;;;11.80;6.90;;;;;;;16.42;69.19;99660.45;107645;1257;60500;-72
2023/11/01 09:33:18;;;;;;;11.10;7.10;;;;;;;16.35;69.58;99660.83;107709;1257;61267;-71
2023/11/01 09:35:46;;;;;;;11.80;7.30;;;;;;;16.27;70.14;99661.98;107889;1256;73561;-71
2023/11/01 09:38:14;;;;;;;10.60;6.70;;;;;;;16.19;70.80;99658.34;107649;1263;73026;-72
2023/11/01 09:40:43;;;;;;;8.80;6.50;;;;;;;16.10;71.38;99660.62;107630;1257;71628;-72
2023/11/01 09:43:11;;;;;;;11.20;6.60;;;;;;;16.03;72.05;99659.16;107615;1257;61243;-71
2023/11/01 09:45:39;;;;;;;10.10;5.90;;;;;;;16.00;72.49;99652.78;107630;1257;61229;-72
2023/11/01 09:48:07;;;;;;;8.70;6.10;;;;;;;15.89;73.04;99648.45;107635;1255;73386;-72
2023/11/01 09:50:37;;;;;;;9.70;5.90;;;;;;;15.87;73.49;99650.41;107777;1257;74478;-72
2023/11/01 09:53:04;;;;;;;9.40;6.20;;;;;;;15.84;73.75;99652.37;107721;1259;72741;-72
2023/11/01 09:55:32;;;;;;;10.30;6.30;;;;;;;15.82;74.22;99653.13;107651;1256;61527;-72
2023/11/01 09:58:00;;;;;;;9.00;5.80;;;;;;;15.79;74.47;99649.83;107667;1254;61177;-72
2023/11/01 10:00:28;;;;;;;12.50;6.30;;;;;;;15.78;74.97;99644.45;107581;1257;74507;-72
2023/11/01 10:02:56;;;;;;;10.10;6.80;;;;;;;15.76;75.17;99644.75;107680;1257;72305;-71
2023/11/01 10:05:24;;;;;;;11.00;6.80;;;;;;;15.74;75.42;99645.04;107774;1260;72767;-71
2023/11/01 10:07:52;;;;;;;10.40;7.10;;;;;;;15.75;75.74;99642.52;107705;1257;61829;-72
2023/11/01 10:10:20;;;;;;;10.50;6.40;;;;;;;15.73;75.92;99647.91;107827;1261;61752;-72
2023/11/01 10:12:47;;;;;;;11.60;6.90;;;;;;;15.69;76.10;99645.75;107767;1257;77288;-72
2023/11/01 10:15:19;;;;;;;9.30;7.30;;;;;;;15.70;76.27;99649.96;107716;1257;72258;-72
2023/11/01 10:17:51;;;;;;;12.40;8.40;;;;;;;15.71;76.43;99647.37;107840;1256;73306;-72
2023/11/01 10:20:24;;;;;;;13.10;9.40;;;;;;;15.71;76.65;99649.15;107698;1257;61173;-72
2023/11/01 10:22:51;;;;;;;;;;;;;;;15.69;76.89;99646.45;107732;1257;61221;-72
2023/11/01 10:25:19;;;;;;;13.50;8.40;;;;;;;15.69;77.07;99643.98;107772;1257;73482;-72
2023/11/01 10:27:48;;;;;;;11.20;8.10;;;;;;;15.67;77.25;99641.28;107710;1257;72977;-73
2023/11/01 10:30:16;;;;;;;10.00;7.40;;;;;;;15.66;77.57;99641.68;107705;1257;75014;-71
2023/11/01 10:32:56;;;;;;;10.30;7.20;;;;;;;15.67;77.68;99643.80;107702;1257;61802;-73
2023/11/01 10:35:26;;;;;;;10.30;7.00;;;;;;;15.64;77.93;99651.40;107824;1256;61279;-72
2023/11/01 10:38:01;;;;;;;11.00;7.20;;;;;;;15.68;78.16;99648.10;107778;1257;74745;-72
2023/11/01 10:40:29;;;;;;;9.00;6.30;;;;;;;15.72;78.16;99643.20;107995;1256;71227;-72
2023/11/01 10:42:58;;;;;;;9.70;7.50;;;;;;;15.76;78.20;99645.41;108307;1258;71549;-73
2023/11/01 10:45:26;;;;;;;11.70;7.80;;;;;;;15.77;78.22;99647.42;109009;1257;62238;-73
2023/11/01 10:47:54;;;;;;;9.90;7.60;;;;;;;15.77;78.35;99647.52;107743;1262;61187;-73
2023/11/01 10:50:23;;;;;;;14.40;8.90;;;;;;;15.79;78.36;99646.17;107732;1257;73013;-73
2023/11/01 10:52:56;;;;;;;13.90;11.00;;;;;;;15.82;78.51;99648.67;107688;1257;73388;-72
2023/11/01 10:55:42;;;;;;;13.20;9.80;;;;;;;15.86;78.59;99651.73;107794;1257;71485;-72
2023/11/01 10:58:29;;;;;;;12.80;9.00;;;;;;;15.86;78.69;99650.85;107731;1262;61734;-72
2023/11/01 11:01:20;;;;;;;12.80;8.10;;;;;;;15.86;78.90;99652.16;108099;1257;61334;-73
2023/11/01 11:04:28;;;;;;;8.90;7.00;;;;;;;15.89;78.73;99654.83;107666;1257;75343;-72
2023/11/01 11:07:19;;;;;;;9.00;6.90;;;;;;;15.83;78.81;99660.93;108033;1258;73079;-73
2023/11/01 11:10:29;;;;;;;9.80;6.80;;;;;;;15.80;78.76;99663.80;107974;1260;72645;-71
2023/11/01 11:13:09;;;;;;;9.60;6.30;;;;;;;15.73;78.96;99667.77;107909;1257;63961;-73
2023/11/01 11:15:56;;;;;;;8.50;6.10;;;;;;;15.66;79.18;99670.11;107871;1257;61291;-72
2023/11/01 11:18:53;;;;;;;9.20;5.80;;;;;;;15.66;79.38;99675.44;107941;1263;75402;-75
2023/11/01 11:22:01;;;;;;;9.20;6.10;;;;;;;15.71;79.58;99674.00;107839;1261;74561;-72
2023/11/01 11:24:41;;;;;;;11.20;6.20;;;;;;;15.75;79.56;99678.23;107728;1257;71321;-72
2023/11/01 11:27:47;;;;;;;9.40;6.00;;;;;;;15.78;79.69;99685.02;107682;1262;61893;-72
2023/11/01 11:30:15;;;;;;;9.30;6.10;;;;;;;15.84;79.70;99687.13;107799;1261;61129;-72
2023/11/01 11:32:43;;;;;;;8.20;5.60;;;;;;;15.88;79.61;99688.30;107969;1260;74751;-73
2023/11/01 11:35:22;;;;;;;10.10;6.20;;;;;;;15.91;79.65;99688.85;107857;1261;70939;-74
2023/11/01 11:37:50;;;;;;;7.40;5.50;;;;;;;15.96;79.61;99690.77;107851;1260;71485;-73